createdAt,value
2022-10-13T00:00:51.000Z,16000.0
2022-10-13T00:01:51.000Z,16000.0
2022-10-13T00:02:52.000Z,16000.0
2022-10-13T00:03:51.000Z,16000.0
2022-10-13T00:04:51.000Z,16000.0
2022-10-13T00:05:52.000Z,16000.0
2022-10-13T00:06:51.000Z,16000.0
2022-10-13T00:07:52.000Z,16000.0
2022-10-13T00:08:51.000Z,16000.0
2022-10-13T00:09:51.000Z,16000.0
2022-10-13T00:10:52.000Z,16000.0
2022-10-13T00:11:51.000Z,16000.0
2022-10-13T00:12:51.000Z,16000.0
2022-10-13T00:13:51.000Z,16000.0
2022-10-13T00:14:51.000Z,16000.0
2022-10-13T00:15:52.000Z,16000.0
2022-10-13T00:16:51.000Z,16000.0
2022-10-13T00:17:51.000Z,16000.0
2022-10-13T00:18:52.000Z,16000.0
2022-10-13T00:19:51.000Z,16000.0
2022-10-13T00:20:52.000Z,16000.0
2022-10-13T00:21:51.000Z,16000.0
2022-10-13T00:22:51.000Z,16000.0
2022-10-13T00:23:52.000Z,16000.0
2022-10-13T00:24:51.000Z,16000.0
2022-10-13T00:25:51.000Z,16000.0
2022-10-13T00:26:51.000Z,16000.0
2022-10-13T00:27:51.000Z,16000.0
2022-10-13T00:28:52.000Z,16000.0
2022-10-13T00:29:51.000Z,16000.0
2022-10-13T00:30:51.000Z,16000.0
2022-10-13T00:31:52.000Z,16000.0
2022-10-13T00:32:51.000Z,16000.0
2022-10-13T00:33:52.000Z,16000.0
2022-10-13T00:34:51.000Z,16000.0
2022-10-13T00:35:51.000Z,16000.0
2022-10-13T00:36:52.000Z,16000.0
2022-10-13T00:37:51.000Z,16000.0
2022-10-13T00:38:51.000Z,16000.0
2022-10-13T00:39:51.000Z,16000.0
2022-10-13T00:40:51.000Z,16000.0
2022-10-13T00:41:52.000Z,16000.0
2022-10-13T00:42:51.000Z,16000.0
2022-10-13T00:43:51.000Z,16000.0
2022-10-13T00:44:52.000Z,16000.0
2022-10-13T00:45:51.000Z,16000.0
2022-10-13T00:46:52.000Z,16000.0
2022-10-13T00:47:51.000Z,16000.0
2022-10-13T00:48:51.000Z,16000.0
2022-10-13T00:49:52.000Z,16000.0
2022-10-13T00:50:51.000Z,16000.0
2022-10-13T00:51:51.000Z,16000.0
2022-10-13T00:52:52.000Z,16000.0
2022-10-13T00:53:51.000Z,16000.0
2022-10-13T00:54:51.000Z,16000.0
2022-10-13T00:55:51.000Z,16000.0
2022-10-13T00:56:51.000Z,16000.0
2022-10-13T00:57:52.000Z,16000.0
2022-10-13T00:58:51.000Z,16000.0
2022-10-13T00:59:51.000Z,16000.0
2022-10-13T01:00:52.000Z,16000.0
2022-10-13T01:01:51.000Z,16000.0
2022-10-13T01:02:51.000Z,16000.0
2022-10-13T01:03:51.000Z,16000.0
2022-10-13T01:04:51.000Z,16000.0
2022-10-13T01:05:52.000Z,16000.0
2022-10-13T01:06:51.000Z,16000.0
2022-10-13T01:07:51.000Z,16000.0
2022-10-13T01:08:52.000Z,16000.0
2022-10-13T01:09:51.000Z,16000.0
2022-10-13T01:10:52.000Z,16000.0
2022-10-13T01:11:51.000Z,16000.0
2022-10-13T01:12:51.000Z,16000.0
2022-10-13T01:13:52.000Z,16000.0
2022-10-13T01:14:51.000Z,16000.0
2022-10-13T01:15:51.000Z,16000.0
2022-10-13T01:16:51.000Z,16000.0
2022-10-13T01:17:51.000Z,16000.0
2022-10-13T01:18:52.000Z,16000.0
2022-10-13T01:19:51.000Z,16000.0
2022-10-13T01:20:51.000Z,16000.0
2022-10-13T01:21:52.000Z,16000.0
2022-10-13T01:22:51.000Z,16000.0
2022-10-13T01:23:51.000Z,16000.0
2022-10-13T01:24:51.000Z,16000.0
2022-10-13T01:25:51.000Z,16000.0
2022-10-13T01:26:52.000Z,16000.0
2022-10-13T01:27:51.000Z,16000.0
2022-10-13T01:28:51.000Z,16000.0
2022-10-13T01:29:51.000Z,16000.0
2022-10-13T01:30:51.000Z,16000.0
2022-10-13T01:31:52.000Z,16000.0
2022-10-13T01:32:51.000Z,16000.0
2022-10-13T01:33:51.000Z,16000.0
2022-10-13T01:34:52.000Z,16000.0
2022-10-13T01:35:51.000Z,16000.0
2022-10-13T01:36:52.000Z,16000.0
2022-10-13T01:37:51.000Z,16000.0
2022-10-13T01:38:51.000Z,16000.0
2022-10-13T01:39:52.000Z,16000.0
2022-10-13T01:40:51.000Z,16000.0
2022-10-13T01:41:51.000Z,16000.0
2022-10-13T01:42:51.000Z,16000.0
2022-10-13T01:43:51.000Z,15782.0
2022-10-13T01:44:52.000Z,15158.0
2022-10-13T01:45:51.000Z,16000.0
2022-10-13T01:46:51.000Z,15707.0
2022-10-13T01:47:52.000Z,15569.0
2022-10-13T01:48:51.000Z,15441.0
2022-10-13T01:49:51.000Z,13927.0
2022-10-13T01:50:51.000Z,12386.0
2022-10-13T01:51:51.000Z,11492.0
2022-10-13T01:52:51.000Z,11543.0
2022-10-13T01:53:51.000Z,10354.0
2022-10-13T01:54:51.000Z,9947.0
2022-10-13T01:55:52.000Z,10123.0
2022-10-13T01:56:51.000Z,9811.0
2022-10-13T01:57:51.000Z,9967.0
2022-10-13T01:58:52.000Z,10100.0
2022-10-13T01:59:51.000Z,9245.0
2022-10-13T02:00:51.000Z,8907.0
2022-10-13T02:01:51.000Z,8928.0
2022-10-13T02:02:51.000Z,9071.0
2022-10-13T02:03:52.000Z,9385.0
2022-10-13T02:04:51.000Z,9320.0
2022-10-13T02:05:51.000Z,9367.0
2022-10-13T02:06:52.000Z,8600.0
2022-10-13T02:07:51.000Z,8207.0
2022-10-13T02:08:52.000Z,8229.0
2022-10-13T02:09:51.000Z,8110.0
2022-10-13T02:10:51.000Z,8479.0
2022-10-13T02:11:52.000Z,9128.0
2022-10-13T02:12:51.000Z,9195.0
2022-10-13T02:13:51.000Z,9373.0
2022-10-13T02:14:51.000Z,9069.0
2022-10-13T02:15:51.000Z,8746.0
2022-10-13T02:16:52.000Z,8425.0
2022-10-13T02:17:51.000Z,8280.0
2022-10-13T02:18:51.000Z,8330.0
2022-10-13T02:19:52.000Z,8243.0
2022-10-13T02:20:51.000Z,8274.0
2022-10-13T02:21:52.000Z,8361.0
2022-10-13T02:22:51.000Z,8005.0
2022-10-13T02:23:51.000Z,7454.0
2022-10-13T02:24:52.000Z,7167.0
2022-10-13T02:25:51.000Z,7720.0
2022-10-13T02:26:51.000Z,8106.0
2022-10-13T02:27:51.000Z,8213.0
2022-10-13T02:28:51.000Z,7886.0
2022-10-13T02:29:52.000Z,8093.0
2022-10-13T02:30:51.000Z,7965.0
2022-10-13T02:31:51.000Z,7953.0
2022-10-13T02:32:52.000Z,8030.0
2022-10-13T02:33:51.000Z,8773.0
2022-10-13T02:34:51.000Z,9403.0
2022-10-13T02:35:51.000Z,9578.0
2022-10-13T02:36:51.000Z,9605.0
2022-10-13T02:37:52.000Z,9948.0
2022-10-13T02:38:51.000Z,9984.0
2022-10-13T02:39:51.000Z,10498.0
2022-10-13T02:40:51.000Z,11596.0
2022-10-13T02:41:51.000Z,11999.0
2022-10-13T02:42:52.000Z,11765.0
2022-10-13T02:43:51.000Z,12341.0
2022-10-13T02:44:51.000Z,12489.0
2022-10-13T02:45:52.000Z,11688.0
2022-10-13T02:46:51.000Z,12221.0
2022-10-13T02:47:52.000Z,12578.0
2022-10-13T02:48:51.000Z,12295.0
2022-10-13T02:49:51.000Z,12850.0
2022-10-13T02:50:52.000Z,13120.0
2022-10-13T02:51:51.000Z,13426.0
2022-10-13T02:52:51.000Z,11901.0
2022-10-13T02:53:52.000Z,11589.0
2022-10-13T02:54:51.000Z,12027.0
2022-10-13T02:55:51.000Z,13350.0
2022-10-13T02:56:52.000Z,13945.0
2022-10-13T02:57:51.000Z,14325.0
2022-10-13T02:58:51.000Z,14996.0
2022-10-13T02:59:51.000Z,14266.0
2022-10-13T03:00:51.000Z,13150.0
2022-10-13T03:01:52.000Z,12320.0
2022-10-13T03:02:51.000Z,11904.0
2022-10-13T03:03:51.000Z,12395.0
2022-10-13T03:04:52.000Z,13415.0
2022-10-13T03:05:51.000Z,14064.0
2022-10-13T03:06:52.000Z,12774.0
2022-10-13T03:07:51.000Z,12112.0
2022-10-13T03:08:51.000Z,11612.0
2022-10-13T03:09:52.000Z,11071.0
2022-10-13T03:10:51.000Z,10635.0
2022-10-13T03:11:51.000Z,9274.0
2022-10-13T03:12:51.000Z,8696.0
2022-10-13T03:13:51.000Z,9613.0
2022-10-13T03:14:52.000Z,10123.0
2022-10-13T03:15:51.000Z,10211.0
2022-10-13T03:16:51.000Z,9748.0
2022-10-13T03:17:52.000Z,9455.0
2022-10-13T03:18:51.000Z,9870.0
2022-10-13T03:19:52.000Z,10460.0
2022-10-13T03:20:51.000Z,11071.0
2022-10-13T03:21:51.000Z,11387.0
2022-10-13T03:22:52.000Z,11650.0
2022-10-13T03:23:51.000Z,11945.0
2022-10-13T03:24:51.000Z,11961.0
2022-10-13T03:25:51.000Z,11661.0
2022-10-13T03:26:51.000Z,11883.0
2022-10-13T03:27:52.000Z,12484.0
2022-10-13T03:28:51.000Z,11516.0
2022-10-13T03:29:51.000Z,11899.0
2022-10-13T03:30:52.000Z,11487.0
2022-10-13T03:31:51.000Z,10958.0
2022-10-13T03:32:52.000Z,11781.0
2022-10-13T03:33:51.000Z,12870.0
2022-10-13T03:34:51.000Z,12974.0
2022-10-13T03:35:52.000Z,13941.0
2022-10-13T03:36:51.000Z,12720.0
2022-10-13T03:37:51.000Z,14091.0
2022-10-13T03:38:51.000Z,13781.0
2022-10-13T03:39:51.000Z,13853.0
2022-10-13T03:40:52.000Z,14789.0
2022-10-13T03:41:51.000Z,15857.0
2022-10-13T03:42:51.000Z,15641.0
2022-10-13T03:43:52.000Z,16000.0
2022-10-13T03:44:51.000Z,16000.0
2022-10-13T03:45:51.000Z,15518.0
2022-10-13T03:46:51.000Z,14843.0
2022-10-13T03:47:51.000Z,13878.0
2022-10-13T03:48:52.000Z,14182.0
2022-10-13T03:49:51.000Z,14441.0
2022-10-13T03:50:51.000Z,15324.0
2022-10-13T03:51:52.000Z,14135.0
2022-10-13T03:52:51.000Z,13450.0
2022-10-13T03:53:51.000Z,13356.0
2022-10-13T03:54:51.000Z,12208.0
2022-10-13T03:55:51.000Z,12116.0
2022-10-13T03:56:52.000Z,13118.0
2022-10-13T03:57:51.000Z,13194.0
2022-10-13T03:58:51.000Z,13514.0
2022-10-13T03:59:52.000Z,13461.0
2022-10-13T04:00:51.000Z,13009.0
2022-10-13T04:01:51.000Z,13869.0
2022-10-13T04:02:51.000Z,14347.0
2022-10-13T04:03:51.000Z,14702.0
2022-10-13T04:04:52.000Z,15325.0
2022-10-13T04:05:51.000Z,16000.0
2022-10-13T04:06:51.000Z,16000.0
2022-10-13T04:07:52.000Z,16000.0
2022-10-13T04:08:51.000Z,15915.0
2022-10-13T04:09:52.000Z,14305.0
2022-10-13T04:10:51.000Z,15754.0
2022-10-13T04:11:51.000Z,16000.0
2022-10-13T04:12:52.000Z,16000.0
2022-10-13T04:13:51.000Z,16000.0
2022-10-13T04:14:51.000Z,16000.0
2022-10-13T04:15:51.000Z,16000.0
2022-10-13T04:16:51.000Z,14791.0
2022-10-13T04:17:52.000Z,14275.0
2022-10-13T04:18:51.000Z,15422.0
2022-10-13T04:19:51.000Z,15561.0
2022-10-13T04:20:52.000Z,15196.0
2022-10-13T04:21:51.000Z,15290.0
2022-10-13T04:22:51.000Z,15456.0
2022-10-13T04:23:51.000Z,15355.0
2022-10-13T04:24:51.000Z,15179.0
2022-10-13T04:25:52.000Z,13854.0
2022-10-13T04:26:51.000Z,13373.0
2022-10-13T04:27:51.000Z,12573.0
2022-10-13T04:28:51.000Z,13341.0
2022-10-13T04:29:51.000Z,13074.0
2022-10-13T04:30:52.000Z,13189.0
2022-10-13T04:31:51.000Z,13301.0
2022-10-13T04:32:51.000Z,12754.0
2022-10-13T04:33:52.000Z,12027.0
2022-10-13T04:34:51.000Z,13051.0
2022-10-13T04:35:51.000Z,14090.0
2022-10-13T04:36:51.000Z,13535.0
2022-10-13T04:37:51.000Z,13930.0
2022-10-13T04:38:52.000Z,14360.0
2022-10-13T04:39:51.000Z,14990.0
2022-10-13T04:40:51.000Z,15337.0
2022-10-13T04:41:51.000Z,14758.0
2022-10-13T04:42:51.000Z,14766.0
2022-10-13T04:43:52.000Z,14985.0
2022-10-13T04:44:51.000Z,16000.0
2022-10-13T04:45:51.000Z,15546.0
2022-10-13T04:46:52.000Z,15896.0
2022-10-13T04:47:51.000Z,15785.0
2022-10-13T04:48:51.000Z,15420.0
2022-10-13T04:49:51.000Z,16000.0
2022-10-13T04:50:51.000Z,16000.0
2022-10-13T04:51:52.000Z,16000.0
2022-10-13T04:52:51.000Z,16000.0
2022-10-13T04:53:51.000Z,16000.0
2022-10-13T04:54:51.000Z,16000.0
2022-10-13T04:55:51.000Z,16000.0
2022-10-13T04:56:52.000Z,15771.0
2022-10-13T04:57:51.000Z,15496.0
2022-10-13T04:58:51.000Z,15637.0
2022-10-13T04:59:52.000Z,15360.0
2022-10-13T05:00:51.000Z,15661.0
2022-10-13T05:01:51.000Z,16000.0
2022-10-13T05:02:51.000Z,16000.0
2022-10-13T05:03:51.000Z,16000.0
2022-10-13T05:04:52.000Z,15972.0
2022-10-13T05:05:51.000Z,14842.0
2022-10-13T05:06:51.000Z,14847.0
2022-10-13T05:07:52.000Z,15165.0
2022-10-13T05:08:51.000Z,15617.0
2022-10-13T05:09:52.000Z,15840.0
2022-10-13T05:10:51.000Z,15534.0
2022-10-13T05:11:51.000Z,16000.0
2022-10-13T05:12:52.000Z,16000.0
2022-10-13T05:13:51.000Z,16000.0
2022-10-13T05:14:51.000Z,16000.0
2022-10-13T05:15:51.000Z,16000.0
2022-10-13T05:16:51.000Z,16000.0
2022-10-13T05:17:52.000Z,16000.0
2022-10-13T05:18:51.000Z,16000.0
2022-10-13T05:19:51.000Z,16000.0
2022-10-13T05:20:52.000Z,16000.0
2022-10-13T05:21:51.000Z,16000.0
2022-10-13T05:22:51.000Z,16000.0
2022-10-13T05:23:51.000Z,16000.0
2022-10-13T05:24:51.000Z,16000.0
2022-10-13T05:25:52.000Z,16000.0
2022-10-13T05:26:51.000Z,16000.0
2022-10-13T05:27:51.000Z,16000.0
2022-10-13T05:28:51.000Z,16000.0
2022-10-13T05:29:51.000Z,16000.0
2022-10-13T05:30:52.000Z,16000.0
2022-10-13T05:31:51.000Z,16000.0
2022-10-13T05:32:51.000Z,16000.0
2022-10-13T05:33:52.000Z,16000.0
2022-10-13T05:34:51.000Z,16000.0
2022-10-13T05:35:52.000Z,16000.0
2022-10-13T05:36:51.000Z,16000.0
2022-10-13T05:37:51.000Z,16000.0
2022-10-13T05:38:52.000Z,16000.0
2022-10-13T05:39:51.000Z,16000.0
2022-10-13T05:40:51.000Z,16000.0
2022-10-13T05:41:51.000Z,16000.0
2022-10-13T05:42:51.000Z,16000.0
2022-10-13T05:43:52.000Z,16000.0
2022-10-13T05:44:51.000Z,16000.0
2022-10-13T05:45:51.000Z,16000.0
2022-10-13T05:46:52.000Z,16000.0
2022-10-13T05:47:51.000Z,16000.0
2022-10-13T05:48:51.000Z,16000.0
2022-10-13T05:49:51.000Z,16000.0
2022-10-13T05:50:51.000Z,16000.0
2022-10-13T05:51:51.000Z,16000.0
2022-10-13T05:52:51.000Z,16000.0
2022-10-13T05:53:51.000Z,16000.0
2022-10-13T05:54:52.000Z,16000.0
2022-10-13T05:55:51.000Z,16000.0
2022-10-13T05:56:51.000Z,16000.0
2022-10-13T05:57:52.000Z,16000.0
2022-10-13T05:58:51.000Z,16000.0
2022-10-13T05:59:51.000Z,16000.0
2022-10-13T06:00:51.000Z,16000.0
2022-10-13T06:01:51.000Z,16000.0
2022-10-13T06:02:52.000Z,16000.0
2022-10-13T06:03:51.000Z,16000.0
2022-10-13T06:04:51.000Z,16000.0
2022-10-13T06:05:51.000Z,16000.0
2022-10-13T06:06:51.000Z,16000.0
2022-10-13T06:07:52.000Z,16000.0
2022-10-13T06:08:51.000Z,16000.0
2022-10-13T06:09:51.000Z,16000.0
2022-10-13T06:10:52.000Z,16000.0
2022-10-13T06:11:51.000Z,16000.0
2022-10-13T06:12:51.000Z,16000.0
2022-10-13T06:13:51.000Z,16000.0
2022-10-13T06:14:51.000Z,16000.0
2022-10-13T06:15:52.000Z,16000.0
2022-10-13T06:16:51.000Z,16000.0
2022-10-13T06:17:51.000Z,16000.0
2022-10-13T06:18:51.000Z,16000.0
2022-10-13T06:19:51.000Z,16000.0
2022-10-13T06:20:52.000Z,16000.0
2022-10-13T06:21:51.000Z,16000.0
2022-10-13T06:22:51.000Z,16000.0
2022-10-13T06:23:52.000Z,16000.0
2022-10-13T06:24:51.000Z,16000.0
2022-10-13T06:25:51.000Z,16000.0
2022-10-13T06:26:51.000Z,16000.0
2022-10-13T06:27:51.000Z,16000.0
2022-10-13T06:28:52.000Z,16000.0
2022-10-13T06:29:51.000Z,16000.0
2022-10-13T06:30:51.000Z,16000.0
2022-10-13T06:31:51.000Z,16000.0
2022-10-13T06:32:51.000Z,16000.0
2022-10-13T06:33:52.000Z,16000.0
2022-10-13T06:34:51.000Z,16000.0
2022-10-13T06:35:51.000Z,16000.0
2022-10-13T06:36:52.000Z,16000.0
2022-10-13T06:37:51.000Z,16000.0
2022-10-13T06:38:51.000Z,16000.0
2022-10-13T06:39:51.000Z,16000.0
2022-10-13T06:40:51.000Z,16000.0
2022-10-13T06:41:52.000Z,16000.0
2022-10-13T06:42:51.000Z,16000.0
2022-10-13T06:43:51.000Z,16000.0
2022-10-13T06:44:51.000Z,16000.0
2022-10-13T06:45:51.000Z,16000.0
2022-10-13T06:46:52.000Z,16000.0
2022-10-13T06:47:51.000Z,16000.0
2022-10-13T06:48:51.000Z,16000.0
2022-10-13T06:49:52.000Z,16000.0
2022-10-13T06:50:51.000Z,16000.0
2022-10-13T06:51:51.000Z,16000.0
2022-10-13T06:52:52.000Z,16000.0
2022-10-13T06:53:51.000Z,16000.0
2022-10-13T06:54:51.000Z,16000.0
2022-10-13T06:55:51.000Z,16000.0
2022-10-13T06:56:51.000Z,16000.0
2022-10-13T06:57:52.000Z,16000.0
2022-10-13T06:58:51.000Z,16000.0
2022-10-13T06:59:51.000Z,16000.0
2022-10-13T07:00:52.000Z,16000.0
2022-10-13T07:01:51.000Z,16000.0
2022-10-13T07:02:51.000Z,16000.0
2022-10-13T07:03:51.000Z,16000.0
2022-10-13T07:04:51.000Z,16000.0
2022-10-13T07:05:52.000Z,16000.0
2022-10-13T07:06:51.000Z,16000.0
2022-10-13T07:07:51.000Z,16000.0
2022-10-13T07:08:52.000Z,16000.0
2022-10-13T07:09:51.000Z,16000.0
2022-10-13T07:10:51.000Z,16000.0
2022-10-13T07:11:51.000Z,16000.0
2022-10-13T07:12:51.000Z,16000.0
2022-10-13T07:13:52.000Z,16000.0
2022-10-13T07:14:51.000Z,16000.0
2022-10-13T07:15:51.000Z,16000.0
2022-10-13T07:16:51.000Z,16000.0
2022-10-13T07:17:51.000Z,16000.0
2022-10-13T07:18:52.000Z,16000.0
2022-10-13T07:19:51.000Z,16000.0
2022-10-13T07:20:51.000Z,16000.0
2022-10-13T07:21:52.000Z,16000.0
2022-10-13T07:22:51.000Z,16000.0
2022-10-13T07:23:51.000Z,16000.0
2022-10-13T07:24:51.000Z,16000.0
2022-10-13T07:25:51.000Z,16000.0
2022-10-13T07:26:52.000Z,16000.0
2022-10-13T07:27:51.000Z,16000.0
2022-10-13T07:28:51.000Z,16000.0
2022-10-13T07:29:51.000Z,16000.0
2022-10-13T07:30:51.000Z,16000.0
2022-10-13T07:31:52.000Z,16000.0
2022-10-13T07:32:51.000Z,16000.0
2022-10-13T07:33:51.000Z,16000.0
2022-10-13T07:34:52.000Z,16000.0
2022-10-13T07:35:51.000Z,16000.0
2022-10-13T07:36:51.000Z,16000.0
2022-10-13T07:37:51.000Z,16000.0
2022-10-13T07:38:51.000Z,16000.0
2022-10-13T07:39:52.000Z,16000.0
2022-10-13T07:40:51.000Z,16000.0
2022-10-13T07:41:51.000Z,16000.0
2022-10-13T07:42:51.000Z,16000.0
2022-10-13T07:43:51.000Z,16000.0
2022-10-13T07:44:52.000Z,16000.0
2022-10-13T07:45:51.000Z,16000.0
2022-10-13T07:46:51.000Z,16000.0
2022-10-13T07:47:52.000Z,16000.0
2022-10-13T07:48:51.000Z,16000.0
2022-10-13T07:49:51.000Z,16000.0
2022-10-13T07:50:51.000Z,16000.0
2022-10-13T07:51:51.000Z,16000.0
2022-10-13T07:52:52.000Z,16000.0
2022-10-13T07:53:51.000Z,16000.0
2022-10-13T07:54:51.000Z,16000.0
2022-10-13T07:55:52.000Z,16000.0
2022-10-13T07:56:51.000Z,16000.0
2022-10-13T07:57:51.000Z,16000.0
2022-10-13T07:58:51.000Z,16000.0
2022-10-13T07:59:51.000Z,16000.0
2022-10-13T08:00:52.000Z,16000.0
2022-10-13T08:01:51.000Z,16000.0
2022-10-13T08:02:51.000Z,16000.0
2022-10-13T08:03:51.000Z,16000.0
2022-10-13T08:04:51.000Z,16000.0
2022-10-13T08:05:52.000Z,16000.0
2022-10-13T08:06:51.000Z,16000.0
2022-10-13T08:07:51.000Z,16000.0
2022-10-13T08:08:52.000Z,16000.0
2022-10-13T08:09:51.000Z,16000.0
2022-10-13T08:10:51.000Z,16000.0
2022-10-13T08:11:51.000Z,16000.0
2022-10-13T08:12:51.000Z,16000.0
2022-10-13T08:13:52.000Z,16000.0
2022-10-13T08:14:51.000Z,16000.0
2022-10-13T08:15:51.000Z,16000.0
2022-10-13T08:16:51.000Z,16000.0
2022-10-13T08:17:51.000Z,16000.0
2022-10-13T08:18:52.000Z,16000.0
2022-10-13T08:19:51.000Z,16000.0
2022-10-13T08:20:51.000Z,16000.0
2022-10-13T08:22:51.000Z,16000.0
2022-10-13T08:23:51.000Z,16000.0
2022-10-13T08:24:51.000Z,16000.0
2022-10-13T08:25:51.000Z,16000.0
2022-10-13T08:26:52.000Z,16000.0
2022-10-13T08:27:51.000Z,16000.0
2022-10-13T08:28:51.000Z,16000.0
2022-10-13T08:29:51.000Z,16000.0
2022-10-13T08:30:51.000Z,16000.0
2022-10-13T08:31:52.000Z,16000.0
2022-10-13T08:32:51.000Z,16000.0
2022-10-13T08:33:51.000Z,16000.0
2022-10-13T08:34:52.000Z,16000.0
2022-10-13T08:35:51.000Z,16000.0
2022-10-13T08:36:51.000Z,16000.0
2022-10-13T08:37:51.000Z,16000.0
2022-10-13T08:38:51.000Z,16000.0
2022-10-13T08:39:52.000Z,16000.0
2022-10-13T08:40:51.000Z,16000.0
2022-10-13T08:41:51.000Z,16000.0
2022-10-13T08:42:51.000Z,16000.0
2022-10-13T08:43:51.000Z,16000.0
2022-10-13T08:45:51.000Z,16000.0
2022-10-13T08:46:51.000Z,16000.0
2022-10-13T08:47:52.000Z,16000.0
2022-10-13T08:48:51.000Z,16000.0
2022-10-13T08:49:51.000Z,16000.0
2022-10-13T08:50:51.000Z,16000.0
2022-10-13T08:51:51.000Z,16000.0
2022-10-13T08:52:52.000Z,16000.0
2022-10-13T08:53:51.000Z,16000.0
2022-10-13T08:54:51.000Z,16000.0
2022-10-13T08:55:51.000Z,16000.0
2022-10-13T08:56:51.000Z,16000.0
2022-10-13T08:57:51.000Z,16000.0
2022-10-13T08:58:51.000Z,16000.0
2022-10-13T08:59:51.000Z,16000.0
2022-10-13T09:00:52.000Z,16000.0
2022-10-13T09:01:51.000Z,16000.0
2022-10-13T09:02:51.000Z,16000.0
2022-10-13T09:03:51.000Z,16000.0
2022-10-13T09:04:51.000Z,16000.0
2022-10-13T09:05:52.000Z,16000.0
2022-10-13T09:06:51.000Z,16000.0
2022-10-13T09:08:50.000Z,16000.0
2022-10-13T09:09:51.000Z,16000.0
2022-10-13T09:10:51.000Z,16000.0
2022-10-13T09:11:51.000Z,16000.0
2022-10-13T09:12:51.000Z,16000.0
2022-10-13T09:13:52.000Z,16000.0
2022-10-13T09:14:51.000Z,16000.0
2022-10-13T09:15:51.000Z,16000.0
2022-10-13T09:16:51.000Z,16000.0
2022-10-13T09:17:51.000Z,16000.0
2022-10-13T09:18:52.000Z,16000.0
2022-10-13T09:19:51.000Z,16000.0
2022-10-13T09:20:51.000Z,16000.0
2022-10-13T09:21:50.000Z,16000.0
2022-10-13T09:22:51.000Z,16000.0
2022-10-13T09:23:51.000Z,16000.0
2022-10-13T09:24:51.000Z,16000.0
2022-10-13T09:25:51.000Z,16000.0
2022-10-13T09:26:52.000Z,16000.0
2022-10-13T09:27:51.000Z,16000.0
2022-10-13T09:28:51.000Z,16000.0
2022-10-13T09:29:51.000Z,16000.0
2022-10-13T09:30:51.000Z,16000.0
2022-10-13T09:31:52.000Z,16000.0
2022-10-13T09:32:51.000Z,16000.0
2022-10-13T09:33:51.000Z,16000.0
2022-10-13T09:34:52.000Z,16000.0
2022-10-13T09:35:51.000Z,16000.0
2022-10-13T09:36:51.000Z,16000.0
2022-10-13T09:37:51.000Z,16000.0
2022-10-13T09:38:51.000Z,16000.0
2022-10-13T09:39:52.000Z,16000.0
2022-10-13T09:40:51.000Z,16000.0
2022-10-13T09:41:51.000Z,16000.0
2022-10-13T09:42:51.000Z,16000.0
2022-10-13T09:43:51.000Z,16000.0
2022-10-13T09:44:52.000Z,16000.0
2022-10-13T09:45:51.000Z,16000.0
2022-10-13T09:46:51.000Z,16000.0
2022-10-13T09:47:50.000Z,16000.0
2022-10-13T09:48:51.000Z,16000.0
2022-10-13T09:49:51.000Z,16000.0
2022-10-13T09:50:51.000Z,16000.0
2022-10-13T09:51:51.000Z,16000.0
2022-10-13T09:52:51.000Z,16000.0
2022-10-13T09:53:51.000Z,16000.0
2022-10-13T09:54:51.000Z,16000.0
2022-10-13T09:55:52.000Z,16000.0
2022-10-13T09:56:51.000Z,16000.0
2022-10-13T09:57:51.000Z,16000.0
2022-10-13T09:58:50.000Z,16000.0
2022-10-13T09:59:51.000Z,16000.0
2022-10-13T10:00:51.000Z,16000.0
2022-10-13T10:01:51.000Z,16000.0
2022-10-13T10:02:51.000Z,16000.0
2022-10-13T10:03:52.000Z,16000.0
2022-10-13T10:04:51.000Z,16000.0
2022-10-13T10:05:51.000Z,16000.0
2022-10-13T10:06:51.000Z,16000.0
2022-10-13T10:07:51.000Z,16000.0
2022-10-13T10:08:52.000Z,16000.0
2022-10-13T10:09:51.000Z,16000.0
2022-10-13T10:10:51.000Z,16000.0
2022-10-13T10:11:52.000Z,16000.0
2022-10-13T10:12:51.000Z,16000.0
2022-10-13T10:13:51.000Z,16000.0
2022-10-13T10:14:51.000Z,16000.0
2022-10-13T10:15:51.000Z,16000.0
2022-10-13T10:16:52.000Z,16000.0
2022-10-13T10:17:51.000Z,16000.0
2022-10-13T10:18:51.000Z,16000.0
2022-10-13T10:19:51.000Z,16000.0
2022-10-13T10:20:51.000Z,16000.0
2022-10-13T10:21:52.000Z,16000.0
2022-10-13T10:22:51.000Z,16000.0
2022-10-13T10:23:51.000Z,16000.0
2022-10-13T10:24:50.000Z,16000.0
2022-10-13T10:25:51.000Z,16000.0
2022-10-13T10:26:51.000Z,16000.0
2022-10-13T10:27:51.000Z,16000.0
2022-10-13T10:28:51.000Z,16000.0
2022-10-13T10:29:52.000Z,16000.0
2022-10-13T10:30:51.000Z,16000.0
2022-10-13T10:31:51.000Z,16000.0
2022-10-13T10:32:51.000Z,16000.0
2022-10-13T10:33:51.000Z,16000.0
2022-10-13T10:34:52.000Z,16000.0
2022-10-13T10:35:51.000Z,16000.0
2022-10-13T10:36:51.000Z,16000.0
2022-10-13T10:37:52.000Z,16000.0
2022-10-13T10:38:51.000Z,16000.0
2022-10-13T10:39:51.000Z,16000.0
2022-10-13T10:40:51.000Z,16000.0
2022-10-13T10:41:51.000Z,16000.0
2022-10-13T10:42:52.000Z,16000.0
2022-10-13T10:43:51.000Z,16000.0
2022-10-13T10:44:51.000Z,16000.0
2022-10-13T10:45:51.000Z,16000.0
2022-10-13T10:46:51.000Z,16000.0
2022-10-13T10:47:51.000Z,16000.0
2022-10-13T10:48:51.000Z,16000.0
2022-10-13T10:49:51.000Z,16000.0
2022-10-13T10:50:52.000Z,16000.0
2022-10-13T10:51:51.000Z,16000.0
2022-10-13T10:52:51.000Z,16000.0
2022-10-13T10:53:50.000Z,16000.0
2022-10-13T10:54:51.000Z,16000.0
2022-10-13T10:55:51.000Z,16000.0
2022-10-13T10:56:51.000Z,16000.0
2022-10-13T10:57:51.000Z,16000.0
2022-10-13T10:58:52.000Z,16000.0
2022-10-13T10:59:51.000Z,16000.0
2022-10-13T11:00:51.000Z,16000.0
2022-10-13T11:01:50.000Z,16000.0
2022-10-13T11:02:51.000Z,16000.0
2022-10-13T11:03:51.000Z,16000.0
2022-10-13T11:04:51.000Z,16000.0
2022-10-13T11:05:51.000Z,16000.0
2022-10-13T11:06:52.000Z,16000.0
2022-10-13T11:07:51.000Z,16000.0
2022-10-13T11:08:51.000Z,16000.0
2022-10-13T11:09:50.000Z,16000.0
2022-10-13T11:10:51.000Z,16000.0
2022-10-13T11:11:52.000Z,16000.0
2022-10-13T11:12:51.000Z,16000.0
2022-10-13T11:13:51.000Z,16000.0
2022-10-13T11:14:52.000Z,16000.0
2022-10-13T11:15:51.000Z,16000.0
2022-10-13T11:16:51.000Z,16000.0
2022-10-13T11:17:51.000Z,16000.0
2022-10-13T11:18:51.000Z,16000.0
2022-10-13T11:19:52.000Z,16000.0
2022-10-13T11:20:51.000Z,16000.0
2022-10-13T11:21:51.000Z,16000.0
2022-10-13T11:22:51.000Z,16000.0
2022-10-13T11:23:51.000Z,16000.0
2022-10-13T11:24:51.000Z,16000.0
2022-10-13T11:25:51.000Z,16000.0
2022-10-13T11:26:51.000Z,16000.0
2022-10-13T11:27:50.000Z,16000.0
2022-10-13T11:28:51.000Z,16000.0
2022-10-13T11:29:51.000Z,16000.0
2022-10-13T11:30:51.000Z,16000.0
2022-10-13T11:31:51.000Z,16000.0
2022-10-13T11:32:52.000Z,16000.0
2022-10-13T11:33:51.000Z,16000.0
2022-10-13T11:34:51.000Z,16000.0
2022-10-13T11:35:50.000Z,16000.0
2022-10-13T11:36:51.000Z,16000.0
2022-10-13T11:37:51.000Z,16000.0
2022-10-13T11:38:51.000Z,16000.0
2022-10-13T11:39:51.000Z,16000.0
2022-10-13T11:40:52.000Z,16000.0
2022-10-13T11:41:51.000Z,16000.0
2022-10-13T11:42:51.000Z,16000.0
2022-10-13T11:43:51.000Z,16000.0
2022-10-13T11:44:51.000Z,16000.0
2022-10-13T11:45:52.000Z,16000.0
2022-10-13T11:46:51.000Z,16000.0
2022-10-13T11:47:51.000Z,16000.0
2022-10-13T11:48:50.000Z,16000.0
2022-10-13T11:49:51.000Z,16000.0
2022-10-13T11:50:51.000Z,16000.0
2022-10-13T11:51:50.000Z,16000.0
2022-10-13T11:52:51.000Z,16000.0
2022-10-13T11:53:51.000Z,16000.0
2022-10-13T11:54:51.000Z,16000.0
2022-10-13T11:55:51.000Z,16000.0
2022-10-13T11:56:52.000Z,16000.0
2022-10-13T11:57:51.000Z,16000.0
2022-10-13T11:58:51.000Z,16000.0
2022-10-13T11:59:50.000Z,16000.0
2022-10-13T12:00:51.000Z,16000.0
2022-10-13T12:01:51.000Z,16000.0
2022-10-13T12:02:51.000Z,16000.0
2022-10-13T12:03:51.000Z,16000.0
2022-10-13T12:04:52.000Z,16000.0
2022-10-13T12:05:51.000Z,16000.0
2022-10-13T12:06:51.000Z,16000.0
2022-10-13T12:07:51.000Z,16000.0
2022-10-13T12:08:51.000Z,16000.0
2022-10-13T12:09:51.000Z,16000.0
2022-10-13T12:10:51.000Z,16000.0